Time;durP1;ratioP1;P1;durP2;ratioP2;P2;SDS_P1;SDS_P2;PMS_P1;PMS_P2;Temp;Humidity;BMP_temperature;BMP_pressure;BME280_temperature;BME280_humidity;BME280_pressure;Samples;Min_cycle;Max_cycle;Signal;HPM_P1;HPM_P2
2023/11/18 00:01:35;;;;;;;49.08;23.70;;;;;;;;;;5018659;28;20183;-88
2023/11/18 00:04:09;;;;;;;37.47;20.63;;;;;;;;;;5017375;28;20181;-88
2023/11/18 00:09:39;;;;;;;37.65;22.65;;;;;;;;;;5034623;28;20188;-88
2023/11/18 00:12:05;;;;;;;37.90;21.23;;;;;;;;;;5016925;28;20174;-89
2023/11/18 00:18:12;;;;;;;44.28;24.23;;;;;;;;;;5054678;28;20241;-88
2023/11/18 00:20:38;;;;;;;54.75;23.67;;;;;;;;;;5055312;28;20212;-89
2023/11/18 00:23:10;;;;;;;42.15;23.05;;;;;;;;;;5028406;28;20184;-90
2023/11/18 00:25:39;;;;;;;48.85;23.58;;;;;;;;;;5029440;28;20189;-89
2023/11/18 00:28:07;;;;;;;45.60;23.00;;;;;;;;;;5037050;28;20537;-88
2023/11/18 00:30:33;;;;;;;45.72;23.67;;;;;;;;;;5026132;28;20712;-89
2023/11/18 00:33:39;;;;;;;51.03;24.38;;;;;;;;;;5020994;28;20196;-89
2023/11/18 00:42:49;;;;;;;40.55;21.90;;;;;;;;;;5037701;28;20643;-88
2023/11/18 00:48:28;;;;;;;45.53;22.38;;;;;;;;;;5037986;28;20149;-89
2023/11/18 00:54:22;;;;;;;41.92;22.30;;;;;;;;;;5037894;28;20177;-90
2023/11/18 00:56:48;;;;;;;46.83;23.13;;;;;;;;;;5024392;28;20186;-87
2023/11/18 00:59:17;;;;;;;48.97;24.88;;;;;;;;;;5027320;28;20171;-87
2023/11/18 01:01:43;;;;;;;42.17;24.00;;;;;;;;;;5026325;28;20240;-87
2023/11/18 01:04:09;;;;;;;46.70;25.58;;;;;;;;;;5023049;28;20643;-88
2023/11/18 01:06:35;;;;;;;48.00;25.30;;;;;;;;;;5025474;28;20213;-87
2023/11/18 01:09:01;;;;;;;44.50;23.92;;;;;;;;;;5029861;28;20166;-88
2023/11/18 01:11:27;;;;;;;43.08;21.95;;;;;;;;;;5021281;28;20264;-87
2023/11/18 01:13:54;;;;;;;42.97;23.83;;;;;;;;;;5022703;28;20605;-87
2023/11/18 01:16:20;;;;;;;45.45;23.52;;;;;;;;;;5004899;28;20825;-87
2023/11/18 01:18:46;;;;;;;46.55;25.08;;;;;;;;;;5024200;28;20181;-87
2023/11/18 01:21:12;;;;;;;43.75;24.25;;;;;;;;;;5025657;28;20185;-88
2023/11/18 01:23:42;;;;;;;42.88;22.48;;;;;;;;;;5031149;28;20186;-92
2023/11/18 01:26:12;;;;;;;40.53;22.60;;;;;;;;;;5019117;28;20195;-87
2023/11/18 01:28:41;;;;;;;41.50;21.38;;;;;;;;;;5033558;28;20261;-87
2023/11/18 01:31:09;;;;;;;43.60;24.40;;;;;;;;;;5011669;28;20238;-87
2023/11/18 01:33:36;;;;;;;39.50;23.83;;;;;;;;;;5024883;28;20176;-87
2023/11/18 01:36:03;;;;;;;49.53;23.85;;;;;;;;;;5022802;28;20205;-87
2023/11/18 01:38:30;;;;;;;41.65;23.67;;;;;;;;;;5044310;28;20238;-87
2023/11/18 01:40:56;;;;;;;43.78;23.60;;;;;;;;;;5029464;28;20173;-87
2023/11/18 01:43:22;;;;;;;52.70;23.83;;;;;;;;;;5017164;28;20178;-88
2023/11/18 01:45:49;;;;;;;53.67;25.17;;;;;;;;;;5025453;28;20184;-87
2023/11/18 01:48:15;;;;;;;48.25;24.70;;;;;;;;;;5030143;28;20273;-88
2023/11/18 01:50:46;;;;;;;52.45;24.20;;;;;;;;;;5029240;28;20177;-88
2023/11/18 01:53:13;;;;;;;47.67;25.45;;;;;;;;;;5028078;28;20688;-88
2023/11/18 01:55:42;;;;;;;50.78;26.77;;;;;;;;;;5030182;28;20206;-88
2023/11/18 01:58:10;;;;;;;58.60;26.58;;;;;;;;;;5014831;28;20184;-88
2023/11/18 02:00:42;;;;;;;50.35;25.23;;;;;;;;;;5029692;28;20697;-88
2023/11/18 02:03:09;;;;;;;60.97;25.98;;;;;;;;;;5025017;28;20657;-87
2023/11/18 02:05:36;;;;;;;57.03;26.70;;;;;;;;;;5024283;28;20602;-88
2023/11/18 02:08:04;;;;;;;60.13;26.98;;;;;;;;;;5023859;28;20196;-88
2023/11/18 02:10:30;;;;;;;63.63;26.73;;;;;;;;;;5021924;28;20174;-88
2023/11/18 02:13:05;;;;;;;59.85;26.50;;;;;;;;;;5038096;28;20183;-88
2023/11/18 02:15:33;;;;;;;56.28;25.63;;;;;;;;;;5018676;28;20200;-88
2023/11/18 02:18:00;;;;;;;59.88;24.77;;;;;;;;;;5023289;28;20222;-88
2023/11/18 02:20:26;;;;;;;61.38;26.23;;;;;;;;;;5024550;28;20173;-87
2023/11/18 02:22:52;;;;;;;61.05;26.98;;;;;;;;;;5030110;28;20204;-87
2023/11/18 02:25:18;;;;;;;69.28;30.17;;;;;;;;;;5032251;28;20543;-87
2023/11/18 02:27:45;;;;;;;70.75;29.67;;;;;;;;;;5023337;28;20269;-88
2023/11/18 02:30:13;;;;;;;73.95;28.00;;;;;;;;;;5031583;28;20249;-88
2023/11/18 02:32:54;;;;;;;66.10;25.90;;;;;;;;;;5013254;28;20645;-88
2023/11/18 02:35:29;;;;;;;71.47;28.75;;;;;;;;;;5034510;28;20289;-87
2023/11/18 02:37:56;;;;;;;83.45;32.45;;;;;;;;;;5035802;28;20213;-88
2023/11/18 02:40:36;;;;;;;79.95;31.42;;;;;;;;;;5018741;28;20182;-88
2023/11/18 02:43:09;;;;;;;81.35;31.25;;;;;;;;;;5029902;28;20638;-87
2023/11/18 02:45:36;;;;;;;74.78;31.77;;;;;;;;;;5020064;28;20189;-87
2023/11/18 02:48:02;;;;;;;75.15;28.80;;;;;;;;;;5014320;28;20186;-88
2023/11/18 02:50:29;;;;;;;88.75;33.38;;;;;;;;;;5016263;28;20184;-87
2023/11/18 02:52:55;;;;;;;86.45;32.33;;;;;;;;;;5041374;28;20178;-87
2023/11/18 02:55:22;;;;;;;88.80;33.00;;;;;;;;;;5016346;28;20566;-87
2023/11/18 02:57:51;;;;;;;80.40;32.42;;;;;;;;;;5018276;28;20198;-88
2023/11/18 03:00:24;;;;;;;94.85;36.65;;;;;;;;;;5000473;28;20220;-87
2023/11/18 03:02:51;;;;;;;82.78;32.50;;;;;;;;;;5006027;28;20181;-88
2023/11/18 03:05:17;;;;;;;85.72;33.03;;;;;;;;;;5005985;28;20189;-88
2023/11/18 03:07:44;;;;;;;99.35;35.33;;;;;;;;;;5022141;28;20180;-87
2023/11/18 03:10:12;;;;;;;86.15;32.20;;;;;;;;;;5030324;28;20216;-88
2023/11/18 03:12:38;;;;;;;94.00;35.50;;;;;;;;;;5026962;28;20188;-87
2023/11/18 03:15:11;;;;;;;89.38;32.17;;;;;;;;;;5041161;28;20201;-88
2023/11/18 03:17:38;;;;;;;83.88;33.05;;;;;;;;;;5016568;28;20221;-87
2023/11/18 03:20:09;;;;;;;96.85;32.88;;;;;;;;;;5018376;28;20205;-89
2023/11/18 03:22:35;;;;;;;94.95;34.88;;;;;;;;;;5041762;28;20202;-88
2023/11/18 03:25:01;;;;;;;94.45;34.58;;;;;;;;;;5020968;28;20190;-88
2023/11/18 03:27:27;;;;;;;102.95;38.83;;;;;;;;;;5011794;28;20333;-87
2023/11/18 03:29:52;;;;;;;115.27;35.80;;;;;;;;;;5002419;28;20229;-87
2023/11/18 03:32:18;;;;;;;108.87;35.20;;;;;;;;;;5002023;28;20981;-87
2023/11/18 03:34:44;;;;;;;94.22;33.97;;;;;;;;;;5028902;28;20848;-87
2023/11/18 03:37:10;;;;;;;92.17;32.37;;;;;;;;;;4996119;28;20201;-88
2023/11/18 03:39:36;;;;;;;96.45;32.90;;;;;;;;;;5005698;28;20538;-88
2023/11/18 03:42:02;;;;;;;82.45;31.90;;;;;;;;;;5043784;28;20190;-88
2023/11/18 03:44:29;;;;;;;92.03;33.40;;;;;;;;;;5022084;28;20189;-87
2023/11/18 03:46:55;;;;;;;87.82;31.23;;;;;;;;;;4994995;28;20432;-87
2023/11/18 03:49:21;;;;;;;90.47;31.60;;;;;;;;;;5011622;28;20188;-89
2023/11/18 03:51:47;;;;;;;86.43;31.13;;;;;;;;;;5001982;28;20424;-90
2023/11/18 03:54:13;;;;;;;77.30;29.10;;;;;;;;;;5006768;28;20629;-86
2023/11/18 03:56:39;;;;;;;81.10;30.03;;;;;;;;;;5023547;28;20187;-86
2023/11/18 03:59:05;;;;;;;72.77;30.00;;;;;;;;;;4996050;28;20922;-86
2023/11/18 04:01:32;;;;;;;74.57;29.95;;;;;;;;;;5039166;28;20440;-85
2023/11/18 04:03:58;;;;;;;75.93;29.13;;;;;;;;;;5030329;28;20348;-86
2023/11/18 04:06:24;;;;;;;65.25;26.55;;;;;;;;;;5007503;28;20564;-86
2023/11/18 04:08:51;;;;;;;74.63;28.40;;;;;;;;;;5025442;28;20181;-86
2023/11/18 04:11:17;;;;;;;63.53;26.08;;;;;;;;;;5010592;28;20189;-86
2023/11/18 04:13:43;;;;;;;73.90;27.95;;;;;;;;;;5025254;28;20242;-86
2023/11/18 04:16:16;;;;;;;61.47;25.55;;;;;;;;;;5028675;28;20211;-86
2023/11/18 04:18:43;;;;;;;64.85;26.83;;;;;;;;;;5031462;28;20190;-86
2023/11/18 04:21:09;;;;;;;74.57;26.30;;;;;;;;;;5016177;28;20294;-86
2023/11/18 04:23:46;;;;;;;51.60;24.55;;;;;;;;;;5016131;28;20542;-86
2023/11/18 04:26:12;;;;;;;59.97;25.45;;;;;;;;;;5033312;28;20182;-86
2023/11/18 04:28:38;;;;;;;61.03;24.35;;;;;;;;;;5006108;28;20190;-86
2023/11/18 04:31:07;;;;;;;66.47;24.33;;;;;;;;;;5039679;28;20314;-87
2023/11/18 04:33:33;;;;;;;62.20;26.42;;;;;;;;;;5029672;28;20197;-86
2023/11/18 04:35:59;;;;;;;58.92;24.98;;;;;;;;;;5024800;28;20279;-86
2023/11/18 04:38:26;;;;;;;65.85;27.65;;;;;;;;;;5047961;28;20522;-85
2023/11/18 04:40:55;;;;;;;60.17;25.23;;;;;;;;;;5021583;28;20526;-86
2023/11/18 04:43:22;;;;;;;58.95;24.92;;;;;;;;;;5026178;28;20232;-86
2023/11/18 04:45:48;;;;;;;55.03;24.58;;;;;;;;;;5034230;28;20179;-86
2023/11/18 04:48:14;;;;;;;57.65;25.40;;;;;;;;;;5046771;28;20203;-86
2023/11/18 04:50:41;;;;;;;62.57;24.27;;;;;;;;;;5013074;28;20271;-86
2023/11/18 04:53:08;;;;;;;58.72;24.63;;;;;;;;;;5023619;28;20436;-86
2023/11/18 04:55:37;;;;;;;57.25;22.92;;;;;;;;;;5029351;28;20198;-85
2023/11/18 04:58:05;;;;;;;55.95;24.42;;;;;;;;;;5010607;28;20201;-85
2023/11/18 05:00:32;;;;;;;56.65;25.75;;;;;;;;;;5037786;28;20198;-86
2023/11/18 05:02:59;;;;;;;56.20;24.88;;;;;;;;;;5014683;28;20193;-86
2023/11/18 05:05:24;;;;;;;54.30;24.70;;;;;;;;;;5029777;28;20322;-85
2023/11/18 05:07:50;;;;;;;59.53;23.87;;;;;;;;;;5025249;28;20223;-85
2023/11/18 05:10:18;;;;;;;53.47;22.10;;;;;;;;;;5020709;28;20442;-85
2023/11/18 05:12:44;;;;;;;52.55;22.58;;;;;;;;;;5018592;28;20178;-86
2023/11/18 05:15:10;;;;;;;56.88;24.77;;;;;;;;;;5018263;28;20600;-86
2023/11/18 05:17:38;;;;;;;51.45;23.85;;;;;;;;;;5027688;28;20662;-86
2023/11/18 05:20:04;;;;;;;50.33;22.63;;;;;;;;;;5026585;28;20181;-87
2023/11/18 05:22:30;;;;;;;60.08;23.90;;;;;;;;;;5027860;28;20177;-86
2023/11/18 05:24:57;;;;;;;62.65;27.95;;;;;;;;;;5030166;28;20188;-87
2023/11/18 05:27:23;;;;;;;68.10;24.42;;;;;;;;;;5025093;28;20186;-86
2023/11/18 05:29:54;;;;;;;62.78;25.25;;;;;;;;;;5013770;28;20256;-86
2023/11/18 05:32:20;;;;;;;48.97;23.35;;;;;;;;;;5025336;28;20182;-87
2023/11/18 05:34:46;;;;;;;61.95;25.98;;;;;;;;;;5002402;28;20222;-86
2023/11/18 05:37:13;;;;;;;56.42;25.00;;;;;;;;;;4998378;28;20290;-85
2023/11/18 05:39:43;;;;;;;60.72;26.25;;;;;;;;;;4992780;28;20178;-86
2023/11/18 05:42:10;;;;;;;60.70;25.55;;;;;;;;;;5005480;28;20277;-86
2023/11/18 05:44:39;;;;;;;53.13;23.63;;;;;;;;;;5031667;28;20193;-86
2023/11/18 05:47:05;;;;;;;50.75;23.27;;;;;;;;;;5048786;28;20174;-86
2023/11/18 05:49:31;;;;;;;58.03;25.05;;;;;;;;;;5021933;28;20190;-86
2023/11/18 05:51:57;;;;;;;58.15;24.77;;;;;;;;;;5022088;28;20170;-86
2023/11/18 05:54:23;;;;;;;51.45;23.90;;;;;;;;;;5027670;28;20178;-87
2023/11/18 05:56:50;;;;;;;51.17;23.20;;;;;;;;;;5027818;28;20552;-86
2023/11/18 05:59:16;;;;;;;53.53;22.73;;;;;;;;;;5033731;28;20635;-87
2023/11/18 06:01:42;;;;;;;49.38;23.55;;;;;;;;;;5027087;28;20186;-87
2023/11/18 06:04:08;;;;;;;52.15;24.98;;;;;;;;;;5026655;28;20186;-86
2023/11/18 06:06:34;;;;;;;63.60;23.93;;;;;;;;;;5028507;28;20258;-86
2023/11/18 06:09:04;;;;;;;54.90;22.75;;;;;;;;;;5022788;28;20440;-86
2023/11/18 06:11:34;;;;;;;50.65;22.17;;;;;;;;;;5016026;28;20539;-86
2023/11/18 06:14:01;;;;;;;55.60;24.77;;;;;;;;;;5025703;28;20174;-86
2023/11/18 06:16:27;;;;;;;48.05;21.55;;;;;;;;;;5026960;28;20256;-87
2023/11/18 06:18:54;;;;;;;45.40;21.65;;;;;;;;;;5028691;28;20182;-86
2023/11/18 06:21:30;;;;;;;43.13;22.13;;;;;;;;;;5025097;28;20186;-87
2023/11/18 06:23:57;;;;;;;49.58;21.45;;;;;;;;;;5027215;28;20242;-86
2023/11/18 06:26:27;;;;;;;47.80;21.90;;;;;;;;;;5027627;28;20189;-86
2023/11/18 06:28:56;;;;;;;45.28;21.25;;;;;;;;;;5020864;28;20181;-85
2023/11/18 06:31:23;;;;;;;46.90;21.88;;;;;;;;;;5037799;28;20320;-87
2023/11/18 06:33:50;;;;;;;38.00;18.00;;;;;;;;;;5022970;28;20181;-86
2023/11/18 06:36:22;;;;;;;48.08;21.88;;;;;;;;;;5000182;28;20758;-86
2023/11/18 06:38:49;;;;;;;46.65;20.55;;;;;;;;;;5017307;28;20584;-86
2023/11/18 06:41:16;;;;;;;39.55;19.00;;;;;;;;;;5021773;28;20183;-86
2023/11/18 06:46:22;;;;;;;36.90;18.48;;;;;;;;;;5035754;28;20192;-86
2023/11/18 06:48:57;;;;;;;39.40;19.38;;;;;;;;;;5031867;28;20234;-83
2023/11/18 06:51:24;;;;;;;38.90;19.85;;;;;;;;;;5020361;28;20565;-83
2023/11/18 06:53:50;;;;;;;38.92;19.05;;;;;;;;;;5035828;28;20178;-83
2023/11/18 06:56:17;;;;;;;36.42;16.70;;;;;;;;;;5025691;28;20198;-87
2023/11/18 06:58:44;;;;;;;37.30;18.48;;;;;;;;;;5023443;28;20573;-86
2023/11/18 07:01:13;;;;;;;31.42;16.55;;;;;;;;;;5000112;28;20186;-87
2023/11/18 07:03:41;;;;;;;38.38;17.95;;;;;;;;;;5019216;28;20177;-86
2023/11/18 07:06:07;;;;;;;34.40;16.45;;;;;;;;;;5023123;28;20178;-87
2023/11/18 07:08:34;;;;;;;32.17;15.80;;;;;;;;;;5027975;28;20634;-87
2023/11/18 07:11:01;;;;;;;38.42;15.95;;;;;;;;;;5016890;28;20626;-88
2023/11/18 07:13:29;;;;;;;36.63;16.55;;;;;;;;;;5008459;28;20610;-87
2023/11/18 07:15:57;;;;;;;26.17;14.57;;;;;;;;;;5022534;28;20207;-87
2023/11/18 07:18:24;;;;;;;27.10;14.20;;;;;;;;;;5031409;28;20661;-87
2023/11/18 07:20:52;;;;;;;32.22;15.68;;;;;;;;;;5022652;28;20539;-87
2023/11/18 07:23:18;;;;;;;31.42;15.40;;;;;;;;;;5032784;28;20320;-87
2023/11/18 07:25:44;;;;;;;31.55;15.85;;;;;;;;;;5031236;28;20182;-87
2023/11/18 07:28:11;;;;;;;30.15;14.50;;;;;;;;;;5037845;28;20185;-88
2023/11/18 07:30:37;;;;;;;25.73;14.55;;;;;;;;;;5036064;28;20305;-87
2023/11/18 07:33:03;;;;;;;29.45;14.20;;;;;;;;;;5023626;28;20196;-87
2023/11/18 07:35:29;;;;;;;25.75;13.40;;;;;;;;;;5023005;28;20246;-88
2023/11/18 07:37:58;;;;;;;26.73;14.02;;;;;;;;;;5009175;28;20204;-87
2023/11/18 07:40:28;;;;;;;25.20;13.18;;;;;;;;;;5022362;28;20261;-88
2023/11/18 07:42:57;;;;;;;30.10;14.90;;;;;;;;;;5042512;28;20177;-86
2023/11/18 07:45:23;;;;;;;22.67;12.80;;;;;;;;;;5033485;28;20198;-88
2023/11/18 07:47:50;;;;;;;29.63;14.30;;;;;;;;;;5030541;28;20232;-87
2023/11/18 07:50:19;;;;;;;25.85;15.15;;;;;;;;;;5023740;28;20186;-87
2023/11/18 07:52:45;;;;;;;29.63;13.98;;;;;;;;;;5036748;28;20177;-88
2023/11/18 07:55:13;;;;;;;29.00;16.08;;;;;;;;;;5045732;28;20201;-87
2023/11/18 07:57:38;;;;;;;29.95;14.55;;;;;;;;;;5019031;28;20186;-87
2023/11/18 08:00:11;;;;;;;32.35;16.30;;;;;;;;;;5028405;28;20181;-88
2023/11/18 08:02:37;;;;;;;26.35;13.80;;;;;;;;;;5018855;28;20316;-88
2023/11/18 08:05:14;;;;;;;28.58;14.85;;;;;;;;;;5044725;28;20540;-90
2023/11/18 08:07:41;;;;;;;28.85;14.75;;;;;;;;;;5025953;28;20192;-89
2023/11/18 08:10:12;;;;;;;26.13;14.93;;;;;;;;;;5028477;28;20191;-90
2023/11/18 08:12:38;;;;;;;26.13;15.07;;;;;;;;;;5021397;28;20517;-88
2023/11/18 08:15:09;;;;;;;24.60;13.40;;;;;;;;;;5033131;28;20199;-89
2023/11/18 08:17:35;;;;;;;29.45;15.20;;;;;;;;;;5028877;28;20185;-88
2023/11/18 08:20:01;;;;;;;24.07;15.30;;;;;;;;;;5022700;28;20551;-87
2023/11/18 08:22:27;;;;;;;27.07;14.90;;;;;;;;;;5023765;28;20452;-88
2023/11/18 08:24:53;;;;;;;24.80;15.18;;;;;;;;;;5018965;28;20427;-88
2023/11/18 08:27:20;;;;;;;31.42;13.80;;;;;;;;;;5025763;28;20545;-88
2023/11/18 08:29:48;;;;;;;25.70;14.75;;;;;;;;;;5046802;28;20292;-88
2023/11/18 08:32:14;;;;;;;27.00;15.30;;;;;;;;;;5017498;28;20211;-89
2023/11/18 08:34:40;;;;;;;25.17;13.55;;;;;;;;;;5026605;28;20728;-89
2023/11/18 08:37:07;;;;;;;26.60;14.55;;;;;;;;;;5025724;28;20205;-90
2023/11/18 08:39:33;;;;;;;25.05;12.82;;;;;;;;;;5032230;28;20177;-89
2023/11/18 08:41:59;;;;;;;22.85;13.65;;;;;;;;;;5022997;28;20178;-89
2023/11/18 08:44:25;;;;;;;22.30;13.18;;;;;;;;;;5005086;28;20380;-90
2023/11/18 08:46:52;;;;;;;25.20;14.45;;;;;;;;;;5026891;28;20209;-89
2023/11/18 08:49:21;;;;;;;25.55;13.63;;;;;;;;;;5020292;28;20174;-88
2023/11/18 08:51:49;;;;;;;28.45;14.60;;;;;;;;;;5014496;28;20214;-89
2023/11/18 08:54:25;;;;;;;23.30;13.65;;;;;;;;;;5010854;28;20635;-88
2023/11/18 08:56:54;;;;;;;24.85;14.18;;;;;;;;;;5037045;28;20185;-88
2023/11/18 08:59:27;;;;;;;23.27;13.77;;;;;;;;;;5030801;28;20179;-86
2023/11/18 09:01:59;;;;;;;21.10;12.65;;;;;;;;;;5033023;28;20214;-88
2023/11/18 09:04:27;;;;;;;22.58;13.50;;;;;;;;;;5043183;28;20181;-88
2023/11/18 09:06:54;;;;;;;21.30;11.43;;;;;;;;;;5021114;28;20179;-88
2023/11/18 09:09:26;;;;;;;22.98;13.90;;;;;;;;;;5039796;28;20533;-88
2023/11/18 09:11:53;;;;;;;18.02;12.50;;;;;;;;;;5004065;28;20195;-87
2023/11/18 09:14:19;;;;;;;30.02;12.75;;;;;;;;;;5024162;28;20181;-88
2023/11/18 09:16:45;;;;;;;25.92;12.95;;;;;;;;;;5044996;28;20339;-88
2023/11/18 09:19:11;;;;;;;20.67;12.27;;;;;;;;;;5018872;28;20238;-88
2023/11/18 09:21:37;;;;;;;21.80;12.82;;;;;;;;;;5022853;28;20185;-89
2023/11/18 09:24:05;;;;;;;24.30;13.15;;;;;;;;;;5022467;28;20234;-87
2023/11/18 09:26:31;;;;;;;23.52;12.85;;;;;;;;;;5026786;28;20187;-88
2023/11/18 09:28:58;;;;;;;21.13;12.02;;;;;;;;;;5038317;28;20746;-88
2023/11/18 09:31:25;;;;;;;25.65;13.07;;;;;;;;;;5039644;28;20236;-88
2023/11/18 09:33:53;;;;;;;18.55;12.50;;;;;;;;;;5026566;28;20271;-89
2023/11/18 09:36:20;;;;;;;26.80;12.80;;;;;;;;;;5028605;28;20208;-88
2023/11/18 09:38:46;;;;;;;24.58;11.70;;;;;;;;;;5034349;28;20186;-88
2023/11/18 09:41:12;;;;;;;23.20;12.38;;;;;;;;;;5031893;28;20269;-89
2023/11/18 09:43:45;;;;;;;20.55;11.60;;;;;;;;;;5039316;28;20224;-88
2023/11/18 09:46:14;;;;;;;19.83;12.55;;;;;;;;;;5024381;28;21213;-88
2023/11/18 09:48:52;;;;;;;23.77;12.35;;;;;;;;;;5013606;28;20177;-88
2023/11/18 09:51:22;;;;;;;17.00;11.35;;;;;;;;;;5033005;28;20186;-89
2023/11/18 09:53:50;;;;;;;19.08;11.75;;;;;;;;;;5030172;28;20180;-89
2023/11/18 09:56:26;;;;;;;24.35;12.65;;;;;;;;;;5045249;28;20190;-89
2023/11/18 09:58:59;;;;;;;21.80;12.75;;;;;;;;;;5033140;28;20199;-88
2023/11/18 10:01:27;;;;;;;16.52;10.90;;;;;;;;;;5027215;28;20656;-89
2023/11/18 10:03:57;;;;;;;23.65;11.70;;;;;;;;;;5024563;28;20320;-88
2023/11/18 10:06:23;;;;;;;18.67;11.98;;;;;;;;;;5037099;28;20178;-88
2023/11/18 10:08:53;;;;;;;21.55;12.13;;;;;;;;;;5028784;28;20258;-88
2023/11/18 10:11:22;;;;;;;18.98;11.73;;;;;;;;;;5039444;28;20188;-88
2023/11/18 10:13:48;;;;;;;21.00;11.32;;;;;;;;;;5027230;28;20185;-88
2023/11/18 10:16:14;;;;;;;17.05;10.65;;;;;;;;;;5027413;28;20194;-87
2023/11/18 10:18:48;;;;;;;20.45;11.18;;;;;;;;;;5025107;28;20205;-88
2023/11/18 10:21:18;;;;;;;16.20;10.23;;;;;;;;;;5017921;28;20669;-89
2023/11/18 10:24:00;;;;;;;17.60;10.45;;;;;;;;;;5044477;28;20181;-88
2023/11/18 10:26:28;;;;;;;20.95;10.93;;;;;;;;;;5043275;28;20187;-90
2023/11/18 10:28:54;;;;;;;16.02;11.32;;;;;;;;;;5012882;28;20265;-88
2023/11/18 10:31:20;;;;;;;17.95;11.38;;;;;;;;;;5039713;28;20706;-89
2023/11/18 10:33:48;;;;;;;22.60;11.73;;;;;;;;;;5024634;28;20258;-88
2023/11/18 10:36:22;;;;;;;14.23;10.25;;;;;;;;;;5029304;28;20458;-90
2023/11/18 10:38:49;;;;;;;13.45;10.32;;;;;;;;;;5048871;28;20229;-92
2023/11/18 10:41:18;;;;;;;13.98;10.65;;;;;;;;;;5032009;28;20174;-92
2023/11/18 10:43:45;;;;;;;13.65;10.18;;;;;;;;;;5025360;28;20579;-92
2023/11/18 10:46:13;;;;;;;16.75;10.15;;;;;;;;;;5013581;28;20553;-92
2023/11/18 10:48:43;;;;;;;21.15;9.90;;;;;;;;;;5040795;28;20176;-92
2023/11/18 10:51:13;;;;;;;13.73;9.35;;;;;;;;;;5030052;28;20185;-91
2023/11/18 10:53:53;;;;;;;15.45;9.57;;;;;;;;;;5038172;28;20185;-92
2023/11/18 10:56:29;;;;;;;11.52;8.32;;;;;;;;;;5029806;28;20308;-92
2023/11/18 10:59:07;;;;;;;12.82;7.40;;;;;;;;;;5032710;28;20219;-90
2023/11/18 11:01:38;;;;;;;11.30;8.60;;;;;;;;;;5022282;28;20197;-88
2023/11/18 11:04:05;;;;;;;10.82;7.90;;;;;;;;;;5027303;28;20183;-88
2023/11/18 11:06:32;;;;;;;10.85;7.50;;;;;;;;;;5026702;28;20667;-88
2023/11/18 11:08:58;;;;;;;14.40;7.97;;;;;;;;;;5026350;28;20544;-88
2023/11/18 11:11:26;;;;;;;13.70;7.90;;;;;;;;;;5024437;28;20179;-88
2023/11/18 11:13:57;;;;;;;12.15;8.45;;;;;;;;;;5005133;28;20184;-88
2023/11/18 11:16:24;;;;;;;13.30;8.50;;;;;;;;;;5019746;28;20209;-88
2023/11/18 11:18:54;;;;;;;10.50;6.93;;;;;;;;;;5024153;28;20186;-89
2023/11/18 11:21:32;;;;;;;12.82;7.05;;;;;;;;;;5027628;28;20181;-88
2023/11/18 11:24:05;;;;;;;17.08;7.25;;;;;;;;;;5022255;28;20634;-88
2023/11/18 11:26:41;;;;;;;14.25;7.95;;;;;;;;;;5018361;28;20184;-89
2023/11/18 11:29:10;;;;;;;7.20;6.50;;;;;;;;;;5023801;28;20186;-89
2023/11/18 11:31:38;;;;;;;13.00;7.63;;;;;;;;;;5024546;28;20288;-89
2023/11/18 11:34:10;;;;;;;12.70;8.90;;;;;;;;;;5021443;28;20527;-89
2023/11/18 11:36:46;;;;;;;10.25;7.60;;;;;;;;;;5032944;28;20205;-88
2023/11/18 11:39:15;;;;;;;11.88;7.57;;;;;;;;;;5041185;28;20178;-90
2023/11/18 11:41:45;;;;;;;8.98;7.50;;;;;;;;;;5035265;28;20174;-88
2023/11/18 11:44:13;;;;;;;10.63;7.10;;;;;;;;;;5025605;28;20189;-88
2023/11/18 11:46:41;;;;;;;14.68;7.57;;;;;;;;;;5032836;28;20174;-88
2023/11/18 11:49:17;;;;;;;17.10;6.32;;;;;;;;;;5048937;28;20613;-88
2023/11/18 11:52:04;;;;;;;8.73;5.32;;;;;;;;;;5023682;28;20649;-87
2023/11/18 11:54:44;;;;;;;12.43;5.95;;;;;;;;;;5037266;28;20170;-87
2023/11/18 11:57:14;;;;;;;8.20;4.70;;;;;;;;;;5039943;28;20233;-87
2023/11/18 11:59:55;;;;;;;10.57;5.07;;;;;;;;;;5019320;28;20170;-87
2023/11/18 12:02:32;;;;;;;8.18;4.32;;;;;;;;;;5019816;28;20213;-86
2023/11/18 12:04:58;;;;;;;9.68;5.32;;;;;;;;;;5028755;28;20640;-88
2023/11/18 12:07:28;;;;;;;6.25;3.90;;;;;;;;;;5043861;28;20192;-87
2023/11/18 12:09:58;;;;;;;5.47;3.92;;;;;;;;;;5027107;28;20264;-87
2023/11/18 12:12:30;;;;;;;8.30;4.60;;;;;;;;;;5025181;28;20178;-87
2023/11/18 12:17:52;;;;;;;6.00;3.10;;;;;;;;;;5023141;28;20562;-87
2023/11/18 12:20:41;;;;;;;6.20;3.63;;;;;;;;;;5037403;28;20182;-91
2023/11/18 12:23:14;;;;;;;4.90;2.60;;;;;;;;;;5014586;28;20209;-88
2023/11/18 12:25:40;;;;;;;5.55;3.17;;;;;;;;;;5010471;28;20265;-88
2023/11/18 12:28:16;;;;;;;7.70;2.60;;;;;;;;;;5022711;28;20195;-88
2023/11/18 12:30:51;;;;;;;5.15;3.45;;;;;;;;;;5042664;28;20229;-88
2023/11/18 12:33:18;;;;;;;5.00;3.30;;;;;;;;;;5034452;28;20223;-88
2023/11/18 12:35:50;;;;;;;5.00;3.03;;;;;;;;;;5032806;28;20209;-88
2023/11/18 12:38:35;;;;;;;3.50;2.63;;;;;;;;;;5020178;28;20182;-88
2023/11/18 12:41:07;;;;;;;6.38;4.88;;;;;;;;;;5050892;28;20206;-90
2023/11/18 12:43:37;;;;;;;8.02;3.15;;;;;;;;;;5050824;28;20169;-88
2023/11/18 12:46:06;;;;;;;4.75;3.17;;;;;;;;;;5037155;28;20190;-89
2023/11/18 12:48:36;;;;;;;5.15;2.70;;;;;;;;;;5027479;28;20188;-88
2023/11/18 12:51:09;;;;;;;4.60;2.60;;;;;;;;;;5023255;28;20269;-88
2023/11/18 12:53:36;;;;;;;5.45;3.20;;;;;;;;;;5014439;28;20650;-88
2023/11/18 12:56:03;;;;;;;4.93;3.20;;;;;;;;;;5043167;28;20200;-88
2023/11/18 12:58:33;;;;;;;6.22;2.85;;;;;;;;;;5046407;28;20208;-88
2023/11/18 13:00:59;;;;;;;6.60;3.20;;;;;;;;;;5045707;28;20273;-89
2023/11/18 13:03:25;;;;;;;3.53;3.03;;;;;;;;;;5028882;28;20172;-90
2023/11/18 13:05:52;;;;;;;5.05;1.95;;;;;;;;;;5025061;28;20231;-90
2023/11/18 13:08:19;;;;;;;3.08;1.90;;;;;;;;;;5031350;28;20183;-89
2023/11/18 13:10:45;;;;;;;3.55;2.33;;;;;;;;;;5026689;28;20174;-90
2023/11/18 13:13:13;;;;;;;2.05;1.60;;;;;;;;;;5032285;28;20183;-89
2023/11/18 13:15:40;;;;;;;6.68;2.10;;;;;;;;;;5022714;28;20194;-90
2023/11/18 13:18:06;;;;;;;3.72;2.40;;;;;;;;;;5020745;28;20192;-90
2023/11/18 13:20:36;;;;;;;8.85;2.35;;;;;;;;;;5049564;28;20174;-90
2023/11/18 13:23:08;;;;;;;3.05;1.73;;;;;;;;;;5043579;28;20329;-89
2023/11/18 13:25:34;;;;;;;6.75;3.75;;;;;;;;;;5042995;28;20542;-89
2023/11/18 13:28:01;;;;;;;4.30;2.03;;;;;;;;;;5047212;28;20181;-89
2023/11/18 13:30:28;;;;;;;3.83;2.50;;;;;;;;;;5028660;28;20600;-89
2023/11/18 13:32:56;;;;;;;3.63;1.80;;;;;;;;;;5043561;28;20179;-88
2023/11/18 13:35:23;;;;;;;5.25;2.15;;;;;;;;;;5025787;28;20198;-88
2023/11/18 13:37:49;;;;;;;3.53;2.10;;;;;;;;;;5017167;28;20671;-88
2023/11/18 13:40:21;;;;;;;4.50;2.05;;;;;;;;;;5046896;28;20205;-88
2023/11/18 13:42:49;;;;;;;6.65;2.08;;;;;;;;;;5024416;28;20564;-88
2023/11/18 13:45:19;;;;;;;3.38;2.05;;;;;;;;;;5007527;28;20190;-89
2023/11/18 13:47:50;;;;;;;2.80;2.20;;;;;;;;;;5044046;28;20594;-88
2023/11/18 13:50:17;;;;;;;7.10;2.00;;;;;;;;;;5044297;28;20186;-88
2023/11/18 13:52:43;;;;;;;2.90;1.58;;;;;;;;;;5035984;28;20231;-89
2023/11/18 13:55:16;;;;;;;4.05;1.88;;;;;;;;;;5032288;28;20670;-87
2023/11/18 13:57:42;;;;;;;2.10;1.50;;;;;;;;;;5019083;28;20222;-88
2023/11/18 14:00:14;;;;;;;3.20;1.85;;;;;;;;;;5039976;28;20252;-88
2023/11/18 14:02:41;;;;;;;2.45;1.90;;;;;;;;;;5018936;28;20191;-88
2023/11/18 14:05:16;;;;;;;3.40;2.50;;;;;;;;;;5017806;28;20186;-87
2023/11/18 14:07:43;;;;;;;5.43;2.80;;;;;;;;;;5026920;28;20196;-89
2023/11/18 14:10:13;;;;;;;2.80;2.45;;;;;;;;;;5029154;28;20185;-88
2023/11/18 14:12:55;;;;;;;2.75;2.15;;;;;;;;;;5040320;28;20174;-87
2023/11/18 14:15:21;;;;;;;6.78;2.85;;;;;;;;;;5019788;28;20221;-87
2023/11/18 14:17:47;;;;;;;3.77;2.80;;;;;;;;;;5032329;28;20177;-86
2023/11/18 14:20:13;;;;;;;5.97;2.95;;;;;;;;;;5045981;28;20906;-87
2023/11/18 14:22:43;;;;;;;6.93;2.65;;;;;;;;;;5022514;28;20216;-86
2023/11/18 14:25:09;;;;;;;5.72;2.60;;;;;;;;;;5038472;28;20173;-91
2023/11/18 14:27:35;;;;;;;8.13;3.20;;;;;;;;;;5042973;28;20698;-87
2023/11/18 14:30:01;;;;;;;5.65;2.70;;;;;;;;;;5018526;28;20326;-87
2023/11/18 14:32:27;;;;;;;4.43;2.67;;;;;;;;;;5028496;28;20225;-89
2023/11/18 14:34:54;;;;;;;6.53;2.73;;;;;;;;;;5024414;28;20234;-86
2023/11/18 14:37:20;;;;;;;6.35;3.03;;;;;;;;;;5017994;28;20421;-87
2023/11/18 14:39:46;;;;;;;6.50;2.47;;;;;;;;;;5027706;28;20591;-87
2023/11/18 14:42:12;;;;;;;6.77;3.37;;;;;;;;;;5029239;28;20268;-88
2023/11/18 14:44:38;;;;;;;5.95;3.20;;;;;;;;;;5012624;28;20519;-86
2023/11/18 14:47:06;;;;;;;3.03;2.45;;;;;;;;;;5019395;28;20192;-86
2023/11/18 14:49:32;;;;;;;4.38;2.50;;;;;;;;;;5016326;28;20546;-87
2023/11/18 14:51:58;;;;;;;7.70;3.10;;;;;;;;;;4998593;28;20260;-87
2023/11/18 14:54:24;;;;;;;11.52;2.67;;;;;;;;;;5011239;28;20429;-86
2023/11/18 14:56:50;;;;;;;6.70;2.85;;;;;;;;;;5022963;28;20744;-86